Time,TemperatureF,DewpointF,PressureIn,WindDirection,WindDirectionDegrees,WindSpeedMPH,WindSpeedGustMPH,Humidity,HourlyPrecipIn,Conditions,Clouds,dailyrainin,SoftwareType,DateUTC
2013-10-22 00:00:00,71.0,62.0,29.96,East,100,14.0,15.0,73,-99.99,,,-99.99,,2013-10-22 05:00:00,
2013-10-22 00:42:00,71.0,62.0,29.96,East,100,14.0,15.0,73,-99.99,,,-99.99,,2013-10-22 05:42:00,
2013-10-22 00:52:00,71.0,62.0,29.96,East,100,14.0,15.0,73,-99.99,,,-99.99,,2013-10-22 05:52:00,
2013-10-22 01:00:00,73.0,55.0,29.95,ESE,120,17.0,20.0,53,-99.99,,,-99.99,,2013-10-22 06:00:00,
2013-10-22 01:53:00,73.0,55.0,29.95,ESE,120,17.0,20.0,53,-99.99,,,-99.99,,2013-10-22 06:53:00,
2013-10-22 02:42:00,74.0,53.0,29.95,ESE,120,18.0,20.0,48,-99.99,,,-99.99,,2013-10-22 07:42:00,
2013-10-22 03:00:00,72.0,55.0,29.96,SE,130,15.0,17.0,53,-99.99,,,-99.99,,2013-10-22 08:00:00,
2013-10-22 03:41:00,72.0,55.0,29.96,SE,130,15.0,17.0,53,-99.99,,,-99.99,,2013-10-22 08:41:00,
2013-10-22 03:52:00,72.0,55.0,29.96,SE,130,15.0,17.0,53,-99.99,,,-99.99,,2013-10-22 08:52:00,
2013-10-22 04:00:00,70.0,59.0,29.94,ESE,120,18.0,21.0,69,-99.99,,,-99.99,,2013-10-22 09:00:00,
2013-10-22 04:42:00,70.0,59.0,29.94,ESE,120,18.0,21.0,69,-99.99,,,-99.99,,2013-10-22 09:42:00,
2013-10-22 04:53:00,70.0,59.0,29.94,ESE,120,18.0,21.0,69,-99.99,,,-99.99,,2013-10-22 09:53:00,
2013-10-22 05:00:00,70.0,61.0,29.95,East,100,15.0,16.0,73,-99.99,,,-99.99,,2013-10-22 10:00:00,
2013-10-22 05:43:00,70.0,61.0,29.95,East,100,15.0,16.0,73,-99.99,,,-99.99,,2013-10-22 10:43:00,
2013-10-22 05:53:00,70.0,61.0,29.95,East,100,15.0,16.0,73,-99.99,,,-99.99,,2013-10-22 10:53:00,
2013-10-22 06:00:00,70.0,62.0,29.95,ESE,110,13.0,14.0,74,-99.99,,,-99.99,,2013-10-22 11:00:00,
2013-10-22 06:42:00,70.0,62.0,29.95,ESE,110,13.0,14.0,74,-99.99,,,-99.99,,2013-10-22 11:42:00,
2013-10-22 06:52:00,70.0,62.0,29.95,ESE,110,13.0,14.0,74,-99.99,,,-99.99,,2013-10-22 11:52:00,
2013-10-22 07:00:00,69.0,62.0,29.94,ENE,60,13.0,14.0,80,-99.99,,,-99.99,,2013-10-22 12:00:00,
2013-10-22 07:42:00,69.0,62.0,29.94,ENE,60,13.0,14.0,80,-99.99,,,-99.99,,2013-10-22 12:42:00,
2013-10-22 07:52:00,69.0,62.0,29.94,ENE,60,13.0,14.0,80,-99.99,,,-99.99,,2013-10-22 12:52:00,
2013-10-22 08:00:00,68.0,60.0,29.96,NNE,30,9.0,9.0,75,-99.99,,,-99.99,,2013-10-22 13:00:00,
2013-10-22 08:41:00,68.0,60.0,29.96,NNE,30,9.0,9.0,75,-99.99,,,-99.99,,2013-10-22 13:41:00,
2013-10-22 08:53:00,68.0,60.0,29.96,NNE,30,9.0,9.0,75,-99.99,,,-99.99,,2013-10-22 13:53:00,
2013-10-22 09:00:00,68.0,60.0,29.97,NNE,30,9.0,10.0,74,-99.99,,,-99.99,,2013-10-22 14:00:00,
2013-10-22 09:42:00,68.0,60.0,29.97,NNE,30,9.0,10.0,74,-99.99,,,-99.99,,2013-10-22 14:42:00,
2013-10-22 09:52:00,68.0,60.0,29.97,NNE,30,9.0,10.0,74,-99.99,,,-99.99,,2013-10-22 14:52:00,
2013-10-22 10:00:00,69.0,61.0,29.96,NNE,20,8.0,10.0,77,-99.99,,,-99.99,,2013-10-22 15:00:00,
2013-10-22 10:43:00,69.0,61.0,29.96,NNE,20,8.0,10.0,77,-99.99,,,-99.99,,2013-10-22 15:43:00,
2013-10-22 10:53:00,69.0,61.0,29.96,NNE,20,8.0,10.0,77,-99.99,,,-99.99,,2013-10-22 15:53:00,
2013-10-22 11:00:00,69.0,61.0,29.96,NNE,20,7.0,8.0,75,-99.99,,,-99.99,,2013-10-22 16:00:00,
2013-10-22 11:42:00,69.0,61.0,29.96,NNE,20,7.0,8.0,75,-99.99,,,-99.99,,2013-10-22 16:42:00,
2013-10-22 11:53:00,69.0,61.0,29.96,NNE,20,7.0,8.0,75,-99.99,,,-99.99,,2013-10-22 16:53:00,
2013-10-22 12:00:00,69.0,61.0,29.94,North,360,9.0,9.0,74,-99.99,,,-99.99,,2013-10-22 17:00:00,
2013-10-22 12:43:00,69.0,61.0,29.94,North,360,9.0,9.0,74,-99.99,,,-99.99,,2013-10-22 17:43:00,
2013-10-22 12:52:00,69.0,61.0,29.94,North,360,9.0,9.0,74,-99.99,,,-99.99,,2013-10-22 17:52:00,
2013-10-22 13:00:00,70.0,62.0,29.92,North,10,7.0,8.0,75,-99.99,,,-99.99,,2013-10-22 18:00:00,
2013-10-22 13:42:00,70.0,62.0,29.92,North,10,7.0,8.0,75,-99.99,,,-99.99,,2013-10-22 18:42:00,
2013-10-22 13:52:00,70.0,62.0,29.92,North,10,7.0,8.0,75,-99.99,,,-99.99,,2013-10-22 18:52:00,
2013-10-22 14:00:00,70.0,63.0,29.91,NE,50,2.0,2.0,77,-99.99,,,-99.99,,2013-10-22 19:00:00,
2013-10-22 14:42:00,70.0,63.0,29.91,NE,50,2.0,2.0,77,-99.99,,,-99.99,,2013-10-22 19:42:00,
2013-10-22 14:52:00,70.0,63.0,29.91,NE,50,2.0,2.0,77,-99.99,,,-99.99,,2013-10-22 19:52:00,
2013-10-22 15:00:00,71.0,63.0,29.90,ENE,70,5.0,5.0,77,-99.99,,,-99.99,,2013-10-22 20:00:00,
2013-10-22 15:42:00,71.0,63.0,29.90,ENE,70,5.0,5.0,77,-99.99,,,-99.99,,2013-10-22 20:42:00,
2013-10-22 15:52:00,71.0,63.0,29.90,ENE,70,5.0,5.0,77,-99.99,,,-99.99,,2013-10-22 20:52:00,
2013-10-22 16:00:00,72.0,63.0,29.89,South,170,5.0,6.0,75,-99.99,,,-99.99,,2013-10-22 21:00:00,
2013-10-22 16:44:00,72.0,63.0,29.89,South,170,5.0,6.0,75,-99.99,,,-99.99,,2013-10-22 21:44:00,
2013-10-22 16:54:00,72.0,63.0,29.89,South,170,5.0,6.0,75,-99.99,,,-99.99,,2013-10-22 21:54:00,
2013-10-22 17:00:00,73.0,65.0,29.89,South,190,2.0,3.0,75,-99.99,,,-99.99,,2013-10-22 22:00:00,
2013-10-22 17:43:00,73.0,65.0,29.89,South,190,2.0,3.0,75,-99.99,,,-99.99,,2013-10-22 22:43:00,
2013-10-22 17:53:00,73.0,65.0,29.89,South,190,2.0,3.0,75,-99.99,,,-99.99,,2013-10-22 22:53:00,
2013-10-22 18:00:00,72.0,65.0,29.89,South,180,3.0,5.0,76,-99.99,,,-99.99,,2013-10-22 23:00:00,
2013-10-22 18:42:00,72.0,65.0,29.89,South,180,3.0,5.0,76,-99.99,,,-99.99,,2013-10-22 23:42:00,
2013-10-22 18:53:00,72.0,65.0,29.89,South,180,3.0,5.0,76,-99.99,,,-99.99,,2013-10-22 23:53:00,
2013-10-22 19:00:00,73.0,63.0,29.90,West,260,5.0,5.0,71,-99.99,,,-99.99,,2013-10-23 00:00:00,
2013-10-22 19:42:00,73.0,63.0,29.90,West,260,5.0,5.0,71,-99.99,,,-99.99,,2013-10-23 00:42:00,
2013-10-22 19:52:00,73.0,63.0,29.90,West,260,5.0,5.0,71,-99.99,,,-99.99,,2013-10-23 00:52:00,
2013-10-22 20:00:00,73.0,58.0,29.92,NW,320,13.0,14.0,59,-99.99,,,-99.99,,2013-10-23 01:00:00,
2013-10-22 20:42:00,73.0,58.0,29.92,NW,320,13.0,14.0,59,-99.99,,,-99.99,,2013-10-23 01:42:00,
2013-10-22 20:52:00,73.0,58.0,29.92,NW,320,13.0,14.0,59,-99.99,,,-99.99,,2013-10-23 01:52:00,
2013-10-22 21:00:00,72.0,57.0,29.93,NNW,330,14.0,16.0,59,-99.99,,,-99.99,,2013-10-23 02:00:00,
2013-10-22 21:42:00,72.0,57.0,29.93,NNW,330,14.0,16.0,59,-99.99,,,-99.99,,2013-10-23 02:42:00,
2013-10-22 21:53:00,72.0,57.0,29.93,NNW,330,14.0,16.0,59,-99.99,,,-99.99,,2013-10-23 02:53:00,
2013-10-22 22:00:00,70.0,57.0,29.95,NNW,330,20.0,22.0,63,-99.99,,,-99.99,,2013-10-23 03:00:00,
2013-10-22 22:44:00,70.0,57.0,29.95,NNW,330,20.0,22.0,63,-99.99,,,-99.99,,2013-10-23 03:44:00,
2013-10-22 22:55:00,70.0,57.0,29.95,NNW,330,20.0,22.0,63,-99.99,,,-99.99,,2013-10-23 03:55:00,
2013-10-22 23:00:00,68.0,58.0,29.96,NNW,340,22.0,24.0,68,-99.99,,,-99.99,,2013-10-23 04:00:00,
2013-10-22 23:44:00,68.0,58.0,29.96,NNW,340,22.0,24.0,68,-99.99,,,-99.99,,2013-10-23 04:44:00,
2013-10-22 23:54:00,68.0,58.0,29.96,NNW,340,22.0,24.0,68,-99.99,,,-99.99,,2013-10-23 04:54:00,